Time;durP1;ratioP1;P1;durP2;ratioP2;P2;SDS_P1;SDS_P2;PMS_P1;PMS_P2;Temp;Humidity;BMP_temperature;BMP_pressure;BME280_temperature;BME280_humidity;BME280_pressure;Samples;Min_cycle;Max_cycle;Signal;HPM_P1;HPM_P2
2023/05/01 00:01:39;;;;;;;6.33;2.40;;;;;;;12.15;69.38;101555.63;5325784;28;20027;-67
2023/05/01 00:04:10;;;;;;;4.17;2.60;;;;;;;12.28;70.24;101545.94;5325976;28;20031;-65
2023/05/01 00:06:41;;;;;;;5.43;2.57;;;;;;;12.06;69.96;101541.75;5325659;28;20020;-65
2023/05/01 00:09:13;;;;;;;4.60;2.67;;;;;;;12.28;70.41;101532.88;5325872;28;20046;-66
2023/05/01 00:11:45;;;;;;;8.40;2.80;;;;;;;12.17;70.14;101532.97;5325300;27;20036;-67
2023/05/01 00:14:16;;;;;;;3.97;2.47;;;;;;;12.08;71.12;101537.41;5324332;28;20051;-67
2023/05/01 00:16:48;;;;;;;9.03;2.73;;;;;;;12.11;69.84;101529.53;5324569;28;20522;-67
2023/05/01 00:19:19;;;;;;;3.77;2.53;;;;;;;11.98;70.21;101529.63;5324528;28;20015;-67
2023/05/01 00:21:51;;;;;;;5.77;3.20;;;;;;;12.11;69.88;101524.31;5325744;28;20031;-67
2023/05/01 00:24:23;;;;;;;4.63;2.67;;;;;;;12.12;69.57;101519.06;5325703;28;20092;-67
2023/05/01 00:26:54;;;;;;;4.67;2.97;;;;;;;11.96;69.08;101515.72;5325446;28;20019;-67
2023/05/01 00:29:26;;;;;;;4.07;2.40;;;;;;;12.07;69.57;101512.13;5325666;28;20023;-67
2023/05/01 00:31:58;;;;;;;5.30;2.42;;;;;;;12.05;69.55;101512.16;5325542;28;20024;-67
2023/05/01 00:34:29;;;;;;;4.23;2.27;;;;;;;12.06;70.63;101510.38;5325675;28;20032;-67
2023/05/01 00:37:00;;;;;;;5.93;2.93;;;;;;;12.02;70.27;101507.81;5325462;28;20112;-67
2023/05/01 00:39:32;;;;;;;5.00;2.83;;;;;;;11.94;71.80;101506.13;5325557;28;20027;-67
2023/05/01 00:42:03;;;;;;;7.70;2.60;;;;;;;12.02;72.21;101505.19;5325067;28;20028;-66
2023/05/01 00:44:34;;;;;;;5.00;2.70;;;;;;;11.92;72.08;101502.66;5325400;28;20031;-67
2023/05/01 00:47:06;;;;;;;5.87;3.00;;;;;;;11.83;71.21;101503.56;5324965;28;20028;-67
2023/05/01 00:49:41;;;;;;;4.23;2.50;;;;;;;11.84;71.53;101503.53;5325009;28;20028;-67
2023/05/01 00:52:13;;;;;;;6.95;2.95;;;;;;;11.78;71.57;101492.28;5325186;28;20020;-66
2023/05/01 00:54:50;;;;;;;5.90;3.10;;;;;;;11.75;71.36;101495.78;5325605;28;20034;-66
2023/05/01 00:57:22;;;;;;;7.25;2.85;;;;;;;11.83;71.38;101493.09;5328304;28;20027;-66
2023/05/01 00:59:53;;;;;;;8.80;3.37;;;;;;;11.84;71.89;101481.78;5329449;28;20458;-69
2023/05/01 01:02:26;;;;;;;6.90;3.27;;;;;;;11.81;72.42;101479.19;5328197;28;20020;-66
2023/05/01 01:04:57;;;;;;;6.25;3.17;;;;;;;11.77;72.45;101485.28;5329504;27;20027;-66
2023/05/01 01:07:38;;;;;;;5.60;2.90;;;;;;;11.72;72.21;101474.03;5329528;28;20129;-66
2023/05/01 01:10:17;;;;;;;4.53;2.67;;;;;;;11.77;73.81;101477.47;5329291;28;20068;-66
2023/05/01 01:13:27;;;;;;;4.97;2.67;;;;;;;11.73;73.31;101474.00;5328960;27;20469;-66
2023/05/01 01:16:18;;;;;;;6.85;2.90;;;;;;;11.67;72.68;101464.50;5329590;28;20126;-66
2023/05/01 01:19:00;;;;;;;5.18;2.65;;;;;;;11.61;73.37;101458.44;5329070;28;20024;-66
2023/05/01 01:21:38;;;;;;;;;;;;;;;11.78;71.34;101460.94;5329657;28;20502;-67
2023/05/01 01:24:47;;;;;;;7.80;2.80;;;;;;;11.64;72.75;101458.41;5327885;28;19907;-67
2023/05/01 01:27:37;;;;;;;4.32;2.80;;;;;;;11.66;72.61;101457.53;5329020;28;20027;-66
2023/05/01 01:30:20;;;;;;;6.43;2.70;;;;;;;11.56;73.61;101444.53;5327802;28;20097;-67
2023/05/01 01:33:11;;;;;;;6.68;3.42;;;;;;;11.56;73.43;101440.19;5328736;28;20043;-66
2023/05/01 01:36:06;;;;;;;5.20;2.75;;;;;;;11.47;73.41;101440.22;5328959;28;20031;-66
2023/05/01 01:39:15;;;;;;;7.57;3.17;;;;;;;11.34;73.98;101435.97;5329024;28;20027;-67
2023/05/01 01:41:50;;;;;;;5.60;3.28;;;;;;;11.35;73.86;101422.03;5296359;28;20047;-67
2023/05/01 01:44:29;;;;;;;6.10;2.72;;;;;;;11.44;74.46;101429.81;5328741;28;20057;-67
2023/05/01 01:47:06;;;;;;;6.95;3.20;;;;;;;11.14;74.30;101421.28;5328629;28;20500;-67
2023/05/01 01:49:41;;;;;;;6.68;3.33;;;;;;;11.27;74.74;101414.22;5328909;28;20035;-67
2023/05/01 01:52:14;;;;;;;5.50;3.03;;;;;;;11.31;76.18;101413.34;5328534;27;20110;-67
2023/05/01 01:54:51;;;;;;;10.98;3.80;;;;;;;11.27;75.47;101411.63;5327584;28;20041;-67
2023/05/01 01:57:24;;;;;;;16.33;3.67;;;;;;;11.15;75.26;101407.34;5328891;28;20085;-67
2023/05/01 01:59:56;;;;;;;8.18;3.45;;;;;;;11.12;75.22;101407.34;5328838;28;20028;-67
2023/05/01 02:02:29;;;;;;;5.20;3.10;;;;;;;11.27;76.57;101407.28;5327558;28;20036;-67
2023/05/01 02:05:01;;;;;;;;;;;;;;;11.38;74.23;101406.34;5328930;28;20112;-67
2023/05/01 02:07:34;;;;;;;8.57;3.85;;;;;;;11.17;76.15;101404.72;5328629;28;20278;-66
2023/05/01 02:10:08;;;;;;;6.43;3.72;;;;;;;11.27;76.12;101401.19;5328539;28;20027;-67
2023/05/01 02:12:43;;;;;;;7.70;3.53;;;;;;;11.18;76.79;101399.50;5328138;28;20434;-67
2023/05/01 02:15:17;;;;;;;9.13;3.90;;;;;;;11.23;77.08;101394.25;5328386;28;20090;-67
2023/05/01 02:17:51;;;;;;;7.95;3.90;;;;;;;11.23;76.77;101400.34;5328333;28;20034;-67
2023/05/01 02:20:22;;;;;;;5.78;3.35;;;;;;;11.15;77.02;101396.06;5328375;28;20115;-67
2023/05/01 02:22:56;;;;;;;8.60;4.03;;;;;;;11.12;78.08;101391.69;5309711;28;20118;-67
2023/05/01 02:25:32;;;;;;;10.63;4.40;;;;;;;11.07;78.27;101388.25;5326800;28;20032;-67
2023/05/01 02:28:11;;;;;;;9.30;3.92;;;;;;;11.19;77.84;101393.41;5328035;28;20462;-67
2023/05/01 02:30:43;;;;;;;7.85;4.20;;;;;;;11.03;78.36;101381.31;5327815;28;20058;-67
2023/05/01 02:33:15;;;;;;;8.38;3.95;;;;;;;11.04;78.93;101372.63;5328154;28;20092;-67
2023/05/01 02:35:46;;;;;;;7.97;3.97;;;;;;;11.06;78.19;101373.47;5327987;28;20048;-67
2023/05/01 02:38:18;;;;;;;7.07;3.80;;;;;;;11.03;79.52;101378.69;5328069;28;20032;-67
2023/05/01 02:40:54;;;;;;;7.50;3.93;;;;;;;11.09;78.92;101371.72;5326680;28;20046;-67
2023/05/01 02:43:27;;;;;;;7.18;3.72;;;;;;;10.98;79.53;101360.50;5327292;28;20106;-67
2023/05/01 02:46:03;;;;;;;8.68;4.00;;;;;;;10.95;79.64;101358.75;5327802;28;20029;-67
2023/05/01 02:48:37;;;;;;;7.35;4.07;;;;;;;10.81;78.90;101360.56;5328217;28;20464;-67
2023/05/01 02:51:09;;;;;;;6.97;3.78;;;;;;;10.91;78.51;101351.81;5327917;28;20036;-67
2023/05/01 02:53:41;;;;;;;10.40;4.72;;;;;;;10.94;80.00;101353.53;5327409;28;20034;-67
2023/05/01 02:56:12;;;;;;;9.80;4.30;;;;;;;10.87;80.18;101351.84;5327424;28;20032;-67
2023/05/01 02:58:44;;;;;;;7.43;4.10;;;;;;;10.91;80.27;101348.34;5327638;28;20375;-67
2023/05/01 03:01:16;;;;;;;8.17;4.13;;;;;;;10.89;79.99;101352.69;5327616;28;20051;-67
2023/05/01 03:03:47;;;;;;;7.53;4.60;;;;;;;10.84;79.58;101339.69;5326355;28;20039;-67
2023/05/01 03:06:18;;;;;;;7.93;5.00;;;;;;;10.88;79.41;101343.13;5327392;28;20123;-67
2023/05/01 03:08:50;;;;;;;8.93;4.20;;;;;;;10.88;79.10;101341.41;5327372;28;20085;-67
2023/05/01 03:11:23;;;;;;;12.17;5.37;;;;;;;10.85;79.38;101345.75;5326989;28;20066;-67
2023/05/01 03:13:55;;;;;;;8.23;4.20;;;;;;;10.80;79.35;101343.16;5327044;28;20028;-67
2023/05/01 03:16:26;;;;;;;9.15;4.38;;;;;;;10.85;79.26;101331.00;5325851;28;20055;-67
2023/05/01 03:18:58;;;;;;;9.40;4.83;;;;;;;10.80;80.66;101330.13;5326623;28;20067;-67
2023/05/01 03:21:30;;;;;;;7.10;4.20;;;;;;;10.65;81.08;101330.22;5327172;28;20076;-67
2023/05/01 03:24:02;;;;;;;;;;;;;;;10.86;79.24;101322.28;5327459;28;20106;-67
2023/05/01 03:26:33;;;;;;;11.15;4.45;;;;;;;10.70;80.14;101328.44;5326677;28;20015;-67
2023/05/01 03:29:05;;;;;;;8.03;4.47;;;;;;;10.78;80.42;101316.22;5327038;28;20481;-67
2023/05/01 03:31:36;;;;;;;13.40;4.87;;;;;;;10.69;80.61;101311.06;5326631;28;20043;-67
2023/05/01 03:34:07;;;;;;;7.93;5.00;;;;;;;10.67;81.70;101305.84;5325756;28;20463;-67
2023/05/01 03:36:39;;;;;;;11.90;5.10;;;;;;;10.56;80.88;101313.75;5326992;28;20031;-67
2023/05/01 03:39:11;;;;;;;8.33;4.50;;;;;;;10.67;80.75;101310.22;5326881;28;20063;-67
2023/05/01 03:41:42;;;;;;;8.95;4.80;;;;;;;10.53;81.02;101308.53;5326405;28;20035;-67
2023/05/01 03:44:14;;;;;;;7.53;4.20;;;;;;;10.55;81.12;101311.13;5326979;28;20587;-67
2023/05/01 03:46:45;;;;;;;12.07;4.67;;;;;;;10.56;82.55;101313.75;5326667;28;20539;-67
2023/05/01 03:49:16;;;;;;;9.10;5.90;;;;;;;10.51;81.62;101297.25;5326747;28;20528;-67
2023/05/01 03:51:48;;;;;;;7.67;4.90;;;;;;;10.48;82.10;101304.19;5326557;28;20031;-67
2023/05/01 03:54:19;;;;;;;7.37;4.43;;;;;;;10.48;82.25;101305.09;5326578;28;20074;-67
2023/05/01 03:56:50;;;;;;;9.30;5.20;;;;;;;10.53;84.08;101297.25;5326526;28;20035;-67
2023/05/01 03:59:22;;;;;;;6.70;5.07;;;;;;;10.50;83.56;101303.34;5326438;28;20028;-66
2023/05/01 04:01:53;;;;;;;7.80;4.67;;;;;;;10.44;83.37;101292.94;5326397;28;20028;-67
2023/05/01 04:04:25;;;;;;;6.23;4.90;;;;;;;10.54;83.02;101294.59;5325961;28;20035;-67
2023/05/01 04:06:57;;;;;;;7.93;4.93;;;;;;;10.44;82.74;101302.50;5325064;28;20474;-67
2023/05/01 04:09:31;;;;;;;12.53;4.60;;;;;;;10.32;82.77;101296.47;5326286;28;20028;-67
2023/05/01 04:12:02;;;;;;;7.35;4.70;;;;;;;10.40;83.75;101292.09;5325876;28;20502;-67
2023/05/01 04:14:33;;;;;;;10.20;4.87;;;;;;;10.31;82.45;101292.06;5325975;28;20139;-67
2023/05/01 04:17:05;;;;;;;8.70;5.10;;;;;;;10.35;82.75;101292.97;5326208;28;20020;-67
2023/05/01 04:19:36;;;;;;;8.23;4.83;;;;;;;10.29;83.08;101288.63;5325789;28;20551;-67
2023/05/01 04:22:08;;;;;;;7.57;4.70;;;;;;;10.35;83.67;101292.97;5325533;28;20083;-66
2023/05/01 04:24:39;;;;;;;7.87;5.77;;;;;;;10.33;83.28;101294.72;5325747;28;20424;-66
2023/05/01 04:27:10;;;;;;;8.37;4.97;;;;;;;10.26;82.53;101301.66;5325725;28;20035;-66
2023/05/01 04:29:42;;;;;;;8.10;5.07;;;;;;;10.17;82.32;101305.13;5324841;28;20455;-66
2023/05/01 04:32:13;;;;;;;9.50;5.60;;;;;;;10.16;82.37;101312.97;5325182;28;20075;-66
2023/05/01 04:34:45;;;;;;;8.33;5.33;;;;;;;10.28;82.86;101306.84;5325168;28;20040;-66
2023/05/01 04:37:17;;;;;;;10.90;5.37;;;;;;;10.27;82.72;101310.31;5325129;28;20074;-66
2023/05/01 04:39:49;;;;;;;8.68;5.78;;;;;;;10.26;83.38;101304.25;5307179;28;20456;-66
2023/05/01 04:42:21;;;;;;;11.95;5.10;;;;;;;10.32;82.91;101304.28;5324981;28;20080;-66
2023/05/01 04:44:52;;;;;;;9.20;4.70;;;;;;;10.24;83.24;101298.19;5325374;28;20115;-67
2023/05/01 04:47:23;;;;;;;14.00;6.00;;;;;;;10.26;83.21;101293.84;5325301;28;20344;-66
2023/05/01 04:49:55;;;;;;;7.30;4.70;;;;;;;10.21;82.84;101295.59;5325260;28;20036;-66
2023/05/01 04:52:26;;;;;;;9.47;5.53;;;;;;;10.34;82.98;101306.88;5325426;28;20036;-66
2023/05/01 04:54:57;;;;;;;11.27;5.87;;;;;;;10.31;83.08;101291.22;5325387;28;20047;-66
2023/05/01 04:57:29;;;;;;;14.67;5.73;;;;;;;10.29;83.18;101290.34;5325234;28;20490;-66
2023/05/01 05:00:02;;;;;;;10.80;5.37;;;;;;;10.22;83.02;101287.78;5325194;28;20038;-66
2023/05/01 05:02:34;;;;;;;11.52;5.00;;;;;;;10.29;83.08;101283.41;5323321;28;20028;-66
2023/05/01 05:05:05;;;;;;;12.77;5.67;;;;;;;10.39;83.62;101292.09;5325016;28;20039;-64
2023/05/01 05:07:36;;;;;;;10.37;5.63;;;;;;;10.39;84.96;101286.88;5324485;28;20031;-65
2023/05/01 05:10:08;;;;;;;13.17;5.50;;;;;;;10.32;83.90;101291.25;5324741;28;20061;-64
2023/05/01 05:12:40;;;;;;;8.83;5.77;;;;;;;10.36;83.43;101284.28;5323331;28;20031;-64
2023/05/01 05:15:11;;;;;;;9.25;6.72;;;;;;;10.42;84.75;101294.69;5324856;28;20078;-64
2023/05/01 05:17:44;;;;;;;10.23;6.03;;;;;;;10.40;83.23;101291.22;5324354;28;20051;-64
2023/05/01 05:20:15;;;;;;;9.18;5.57;;;;;;;10.33;83.34;101294.72;5324544;28;20032;-64
2023/05/01 05:22:47;;;;;;;12.97;6.00;;;;;;;10.45;83.03;101280.75;5324639;28;20035;-64
2023/05/01 05:25:18;;;;;;;10.53;6.20;;;;;;;10.40;83.79;101288.63;5323627;28;20419;-64
2023/05/01 05:27:49;;;;;;;11.40;5.87;;;;;;;10.46;83.77;101292.94;5324947;28;20076;-64
2023/05/01 05:30:21;;;;;;;10.70;5.90;;;;;;;10.57;83.22;101296.34;5324869;28;20032;-64
2023/05/01 05:32:52;;;;;;;11.67;6.27;;;;;;;10.68;82.58;101294.56;5324861;28;20028;-64
2023/05/01 05:35:24;;;;;;;10.43;5.40;;;;;;;10.75;82.00;101283.22;5325087;28;20028;-64
2023/05/01 05:37:55;;;;;;;11.83;5.50;;;;;;;10.83;81.40;101280.56;5324607;28;20115;-64
2023/05/01 05:40:26;;;;;;;8.47;5.97;;;;;;;10.87;81.22;101282.28;5326316;28;20044;-64
2023/05/01 05:42:58;;;;;;;14.30;6.57;;;;;;;10.98;81.09;101277.00;5328546;28;20410;-64
2023/05/01 05:45:33;;;;;;;14.87;6.23;;;;;;;11.16;79.93;101278.63;5327145;28;20132;-64
2023/05/01 05:48:04;;;;;;;10.23;6.07;;;;;;;11.14;79.68;101288.22;5328828;28;20525;-65
2023/05/01 05:50:36;;;;;;;11.40;6.47;;;;;;;11.12;78.98;101287.34;5328791;28;20076;-64
2023/05/01 05:53:08;;;;;;;13.47;6.47;;;;;;;11.23;78.94;101280.28;5328472;27;20032;-64
2023/05/01 05:55:40;;;;;;;8.77;6.15;;;;;;;11.32;78.48;101284.59;5327651;28;20035;-64
2023/05/01 05:58:11;;;;;;;9.10;6.17;;;;;;;11.29;77.87;101282.88;5328680;28;20176;-65
2023/05/01 06:00:43;;;;;;;6.90;5.40;;;;;;;11.37;78.85;101277.59;5328335;28;20023;-65
2023/05/01 06:03:15;;;;;;;11.88;6.65;;;;;;;11.58;77.66;101288.72;5328660;28;20156;-65
2023/05/01 06:05:47;;;;;;;12.30;5.77;;;;;;;11.55;76.64;101286.16;5328483;28;20102;-65
2023/05/01 06:08:18;;;;;;;10.63;5.65;;;;;;;11.59;76.99;101280.88;5328782;28;20473;-65
2023/05/01 06:10:50;;;;;;;11.23;6.73;;;;;;;11.62;78.90;101272.13;5328868;28;20024;-65
2023/05/01 06:13:21;;;;;;;10.83;5.77;;;;;;;11.60;78.11;101279.13;5328626;28;20438;-65
2023/05/01 06:15:53;;;;;;;10.93;6.43;;;;;;;11.46;75.79;101282.75;5329483;28;20539;-64
2023/05/01 06:18:25;;;;;;;10.77;6.33;;;;;;;11.57;76.23;101277.41;5330169;27;20031;-66
2023/05/01 06:20:56;;;;;;;11.50;6.20;;;;;;;11.68;76.41;101279.91;5330773;28;20039;-64
2023/05/01 06:23:28;;;;;;;12.10;7.13;;;;;;;11.92;76.25;101281.47;5330792;28;20028;-65
2023/05/01 06:25:59;;;;;;;12.17;6.67;;;;;;;11.94;76.17;101282.31;5331384;28;20036;-65
2023/05/01 06:28:30;;;;;;;11.60;6.73;;;;;;;11.98;75.58;101280.53;5331005;28;20051;-65
2023/05/01 06:31:02;;;;;;;10.47;6.90;;;;;;;12.09;75.30;101289.13;5331870;28;20478;-65
2023/05/01 06:33:33;;;;;;;13.03;6.97;;;;;;;12.15;74.46;101277.72;5330543;28;20028;-65
2023/05/01 06:36:05;;;;;;;17.63;6.47;;;;;;;12.37;75.10;101275.72;5332167;28;20059;-65
2023/05/01 06:38:36;;;;;;;15.60;7.05;;;;;;;12.66;74.56;101272.72;5334197;27;20059;-65
2023/05/01 06:41:08;;;;;;;8.20;5.47;;;;;;;12.77;72.46;101268.22;5334877;28;20042;-65
2023/05/01 06:43:39;;;;;;;7.57;6.07;;;;;;;12.81;72.28;101274.25;5334454;28;20502;-64
2023/05/01 06:46:11;;;;;;;12.70;6.80;;;;;;;12.95;71.16;101272.31;5335424;27;20092;-65
2023/05/01 06:48:42;;;;;;;12.20;7.23;;;;;;;12.99;71.38;101272.28;5334228;28;20031;-65
2023/05/01 06:51:14;;;;;;;8.23;6.47;;;;;;;13.18;71.09;101271.09;5333795;28;20083;-65
2023/05/01 06:53:46;;;;;;;15.68;7.38;;;;;;;13.06;70.39;101274.78;5327717;28;20138;-66
2023/05/01 06:56:17;;;;;;;11.60;6.63;;;;;;;13.19;71.66;101274.59;5327763;28;20457;-66
2023/05/01 06:58:49;;;;;;;16.53;7.00;;;;;;;13.31;71.00;101269.13;5328190;28;20034;-66
2023/05/01 07:01:20;;;;;;;12.63;7.20;;;;;;;13.40;70.76;101268.19;5326476;28;20028;-65
2023/05/01 07:03:51;;;;;;;10.83;6.53;;;;;;;13.39;68.86;101274.28;5327703;28;20027;-66
2023/05/01 07:06:22;;;;;;;12.13;6.40;;;;;;;13.64;69.36;101274.75;5327021;28;20067;-66
2023/05/01 07:08:54;;;;;;;15.03;7.17;;;;;;;13.89;68.17;101274.28;5327388;28;20031;-66
2023/05/01 07:11:25;;;;;;;10.87;6.93;;;;;;;14.00;68.09;101272.34;5327357;28;20463;-66
2023/05/01 07:13:57;;;;;;;13.60;6.17;;;;;;;14.00;66.92;101270.56;5326827;28;20077;-66
2023/05/01 07:16:28;;;;;;;11.43;6.43;;;;;;;14.19;64.48;101271.06;5327405;28;20134;-66
2023/05/01 07:18:59;;;;;;;12.63;6.47;;;;;;;14.02;63.91;101267.91;5327088;28;20035;-66
2023/05/01 07:21:31;;;;;;;11.60;6.60;;;;;;;14.12;64.79;101269.47;5327029;28;20024;-66
2023/05/01 07:24:03;;;;;;;11.20;6.85;;;;;;;14.28;63.06;101277.03;5326871;28;20027;-66
2023/05/01 07:26:35;;;;;;;9.97;6.13;;;;;;;14.51;64.92;101273.94;5326681;28;20111;-66
2023/05/01 07:29:06;;;;;;;13.23;6.67;;;;;;;14.64;62.85;101275.41;5326992;28;20027;-66
2023/05/01 07:31:38;;;;;;;12.43;6.47;;;;;;;14.72;62.56;101277.88;5326715;28;20028;-66
2023/05/01 07:34:09;;;;;;;15.80;6.23;;;;;;;14.82;62.77;101271.53;5326671;28;20474;-66
2023/05/01 07:36:40;;;;;;;10.10;6.20;;;;;;;14.99;61.39;101268.53;5326542;28;20040;-66
2023/05/01 07:39:13;;;;;;;10.27;6.70;;;;;;;15.19;60.79;101275.91;5325376;28;20474;-66
2023/05/01 07:41:44;;;;;;;11.85;6.43;;;;;;;15.37;60.65;101273.75;5326001;28;20035;-66
2023/05/01 07:44:16;;;;;;;13.67;6.90;;;;;;;15.46;58.15;101276.13;5325400;28;20551;-66
2023/05/01 07:46:47;;;;;;;12.83;5.90;;;;;;;15.55;58.16;101275.88;5326358;28;20036;-66
2023/05/01 07:49:19;;;;;;;12.50;6.97;;;;;;;15.29;57.65;101273.91;5326264;28;20028;-66
2023/05/01 07:51:50;;;;;;;11.27;6.93;;;;;;;14.89;58.93;101278.38;5326163;28;20467;-66
2023/05/01 07:54:22;;;;;;;14.43;7.20;;;;;;;15.12;59.58;101276.97;5325835;28;20472;-66
2023/05/01 07:56:53;;;;;;;14.70;6.20;;;;;;;15.38;59.67;101286.84;5325647;28;20410;-66
2023/05/01 07:59:24;;;;;;;10.00;6.27;;;;;;;15.50;59.38;101277.78;5326088;28;20035;-66
2023/05/01 08:01:56;;;;;;;11.47;5.90;;;;;;;15.66;61.64;101276.50;5326011;28;20379;-66
2023/05/01 08:04:28;;;;;;;14.93;6.90;;;;;;;15.81;58.05;101279.63;5325870;28;20111;-65
2023/05/01 08:06:59;;;;;;;11.00;7.00;;;;;;;15.59;58.16;101277.53;5324471;28;20084;-66
2023/05/01 08:09:30;;;;;;;12.33;7.50;;;;;;;15.46;58.15;101273.50;5326098;28;20190;-67
2023/05/01 08:12:02;;;;;;;13.70;6.70;;;;;;;15.82;58.82;101276.09;5324155;28;20035;-66
2023/05/01 08:14:34;;;;;;;16.15;7.03;;;;;;;16.06;58.54;101264.06;5325652;28;20048;-66
2023/05/01 08:17:05;;;;;;;21.53;7.47;;;;;;;16.38;58.73;101265.75;5325820;28;20027;-65
2023/05/01 08:19:36;;;;;;;11.37;6.67;;;;;;;16.52;57.12;101261.88;5325706;28;20032;-65
2023/05/01 08:22:08;;;;;;;8.60;6.90;;;;;;;16.40;56.11;101260.44;5324097;28;20081;-65
2023/05/01 08:24:41;;;;;;;8.97;7.00;;;;;;;16.30;56.03;101259.88;5325738;28;20401;-65
2023/05/01 08:27:12;;;;;;;12.77;6.53;;;;;;;16.42;54.84;101271.78;5325487;28;20036;-65
2023/05/01 08:29:44;;;;;;;12.23;7.13;;;;;;;16.08;56.10;101264.88;5323951;28;20061;-65
2023/05/01 08:32:17;;;;;;;16.23;7.13;;;;;;;16.02;56.18;101263.28;5325449;28;20110;-65
2023/05/01 08:34:49;;;;;;;10.13;6.32;;;;;;;16.60;57.63;101259.88;5325504;28;20027;-65
2023/05/01 08:37:20;;;;;;;13.27;6.37;;;;;;;17.06;54.55;101270.75;5358449;27;20506;-65
2023/05/01 08:39:52;;;;;;;10.73;6.00;;;;;;;16.97;53.17;101268.41;5325437;28;20066;-65
2023/05/01 08:42:23;;;;;;;14.17;7.40;;;;;;;17.12;52.27;101263.53;5324606;28;20035;-65
2023/05/01 08:44:58;;;;;;;9.07;5.97;;;;;;;17.22;53.17;101271.13;5325345;28;20028;-65
2023/05/01 08:47:30;;;;;;;10.85;6.00;;;;;;;17.62;50.46;101270.63;5325258;28;20066;-65
2023/05/01 08:50:02;;;;;;;10.73;6.80;;;;;;;17.89;51.25;101277.66;5325303;28;20391;-65
2023/05/01 08:52:37;;;;;;;13.00;6.43;;;;;;;18.09;50.34;101276.97;5325262;28;20066;-65
2023/05/01 08:55:13;;;;;;;10.23;6.63;;;;;;;17.78;50.64;101268.34;5325315;28;20481;-65
2023/05/01 08:57:46;;;;;;;7.63;6.10;;;;;;;17.80;51.04;101271.78;5325282;28;20111;-65
2023/05/01 09:00:18;;;;;;;;;;;;;;;18.39;51.55;101277.63;5325526;28;20486;-65
2023/05/01 09:02:50;;;;;;;12.02;7.63;;;;;;;17.67;51.01;101281.88;5324029;28;19916;-65
2023/05/01 09:05:22;;;;;;;13.55;7.20;;;;;;;18.25;50.39;101274.63;5325285;28;20378;-65
2023/05/01 09:07:54;;;;;;;9.67;6.33;;;;;;;18.45;50.16;101280.03;5323894;28;20035;-66
2023/05/01 09:10:26;;;;;;;10.67;7.63;;;;;;;17.93;50.81;101281.94;5325247;28;20046;-66
2023/05/01 09:13:00;;;;;;;10.70;6.32;;;;;;;18.12;51.40;101277.72;5323397;28;20272;-65
2023/05/01 09:15:32;;;;;;;13.27;7.45;;;;;;;18.13;51.25;101274.16;5326746;28;20407;-65
2023/05/01 09:18:04;;;;;;;7.93;6.30;;;;;;;18.22;53.23;101272.94;5329102;28;20501;-65
2023/05/01 09:20:36;;;;;;;10.40;7.53;;;;;;;18.49;51.57;101275.50;5329381;28;20027;-65
2023/05/01 09:23:10;;;;;;;9.23;7.05;;;;;;;18.40;50.68;101276.69;5328979;28;20493;-65
2023/05/01 09:25:42;;;;;;;13.95;7.13;;;;;;;18.35;50.24;101274.25;5329129;28;20023;-66
2023/05/01 09:28:14;;;;;;;10.60;7.50;;;;;;;18.15;50.08;101277.59;5329121;28;20089;-66
2023/05/01 09:30:46;;;;;;;10.07;7.30;;;;;;;18.28;49.82;101277.16;5329145;28;20028;-65
2023/05/01 09:33:17;;;;;;;13.63;7.37;;;;;;;18.40;49.14;101269.63;5328922;28;20520;-66
2023/05/01 09:35:53;;;;;;;12.07;6.67;;;;;;;18.53;48.64;101274.44;5328718;27;20039;-66
2023/05/01 09:38:27;;;;;;;13.43;7.90;;;;;;;18.72;47.56;101272.84;5328619;28;20024;-66
2023/05/01 09:41:04;;;;;;;17.60;7.68;;;;;;;18.66;47.01;101269.53;5327343;28;20016;-66
2023/05/01 09:43:35;;;;;;;9.65;6.25;;;;;;;19.17;46.35;101267.56;5328306;28;20023;-66
2023/05/01 09:46:08;;;;;;;8.83;7.23;;;;;;;19.39;45.26;101268.38;5328370;27;20024;-66
2023/05/01 09:48:39;;;;;;;10.88;6.93;;;;;;;19.82;45.08;101276.31;5328342;27;20085;-66
2023/05/01 09:51:28;;;;;;;7.97;6.23;;;;;;;20.10;43.91;101275.09;5326026;28;20031;-67
2023/05/01 09:54:04;;;;;;;10.25;6.93;;;;;;;21.05;45.34;101277.75;5328143;28;20077;-66
2023/05/01 09:56:46;;;;;;;10.98;6.80;;;;;;;21.20;40.98;101273.47;5327860;28;20028;-66
2023/05/01 09:59:19;;;;;;;8.68;5.97;;;;;;;21.91;39.39;101276.06;5328670;28;20542;-66
2023/05/01 10:01:51;;;;;;;9.50;6.30;;;;;;;22.47;38.97;101283.75;5328529;28;20077;-66
2023/05/01 10:04:35;;;;;;;10.02;5.40;;;;;;;22.17;39.68;101287.06;5328350;28;20036;-66
2023/05/01 10:07:13;;;;;;;9.60;6.30;;;;;;;21.46;39.95;101283.63;5328419;28;20115;-66
2023/05/01 10:09:45;;;;;;;9.02;6.35;;;;;;;21.19;41.30;101277.91;5328252;28;20382;-66
2023/05/01 10:12:29;;;;;;;11.77;6.20;;;;;;;21.78;41.04;101282.94;5327982;28;20028;-66
2023/05/01 10:15:03;;;;;;;11.85;6.53;;;;;;;21.53;39.65;101289.50;5327999;28;20051;-66
2023/05/01 10:17:35;;;;;;;9.02;6.82;;;;;;;21.31;39.51;101279.94;5327019;28;20043;-66
2023/05/01 10:20:08;;;;;;;10.73;6.70;;;;;;;21.38;40.24;101279.63;5328266;28;20057;-66
2023/05/01 10:22:40;;;;;;;12.00;7.53;;;;;;;20.97;39.70;101280.75;5327977;28;20438;-66
2023/05/01 10:25:11;;;;;;;11.52;7.78;;;;;;;21.16;40.96;101275.41;5328121;28;20058;-65
2023/05/01 10:27:43;;;;;;;11.63;7.28;;;;;;;20.81;41.89;101280.63;5326332;28;20115;-65
2023/05/01 10:30:16;;;;;;;10.37;7.50;;;;;;;20.61;42.59;101275.38;5328018;28;20039;-65
2023/05/01 10:32:48;;;;;;;10.07;7.22;;;;;;;20.73;41.44;101288.94;5327737;28;20036;-65
2023/05/01 10:35:33;;;;;;;8.55;7.13;;;;;;;20.47;43.10;101284.84;5327901;28;20434;-65
2023/05/01 10:38:10;;;;;;;14.05;7.00;;;;;;;21.24;44.95;101283.00;5327847;27;20035;-65
2023/05/01 10:40:46;;;;;;;14.20;7.10;;;;;;;20.99;42.35;101284.19;5327828;28;20412;-65
2023/05/01 10:43:28;;;;;;;12.23;7.32;;;;;;;19.86;44.37;101289.31;5327192;28;20041;-65
2023/05/01 10:46:06;;;;;;;13.00;6.82;;;;;;;19.89;45.51;101290.97;5326367;28;20070;-65
2023/05/01 10:48:38;;;;;;;13.70;7.18;;;;;;;19.75;46.32;101288.88;5327310;28;20369;-65
2023/05/01 10:51:10;;;;;;;11.57;7.45;;;;;;;19.55;46.03;101294.19;5327555;28;20027;-65
2023/05/01 10:53:43;;;;;;;12.07;7.57;;;;;;;19.53;46.49;101290.72;5327419;28;20482;-65
2023/05/01 10:56:24;;;;;;;9.68;6.50;;;;;;;19.49;46.20;101296.16;5327460;28;20023;-65
2023/05/01 10:59:03;;;;;;;11.85;6.65;;;;;;;19.43;46.03;101291.13;5327494;28;20470;-65
2023/05/01 11:01:46;;;;;;;13.43;7.47;;;;;;;19.90;46.75;101290.06;5327332;28;20055;-65
2023/05/01 11:04:20;;;;;;;12.70;7.97;;;;;;;20.65;42.95;101291.09;5326085;28;20032;-65
2023/05/01 11:07:01;;;;;;;9.20;7.32;;;;;;;21.59;43.16;101291.88;5326763;28;20030;-65
2023/05/01 11:09:45;;;;;;;10.38;6.97;;;;;;;21.72;40.40;101292.09;5327141;28;20031;-65
2023/05/01 11:12:44;;;;;;;10.18;6.75;;;;;;;23.09;39.14;101294.50;5326685;28;20416;-65
2023/05/01 11:15:29;;;;;;;11.95;7.32;;;;;;;22.47;38.69;101300.53;5326888;28;20079;-65
2023/05/01 11:18:02;;;;;;;13.82;7.50;;;;;;;21.20;39.60;101292.03;5325720;28;20390;-65
2023/05/01 11:20:36;;;;;;;7.82;6.63;;;;;;;21.49;39.88;101301.19;5326462;28;20081;-65
2023/05/01 11:23:16;;;;;;;9.93;6.78;;;;;;;21.06;40.68;101298.03;5326564;28;20039;-65
2023/05/01 11:25:48;;;;;;;10.95;7.95;;;;;;;20.71;41.16;101295.25;5326717;28;20054;-65
2023/05/01 11:28:20;;;;;;;10.68;7.60;;;;;;;20.58;41.80;101298.44;5326709;28;20036;-65
2023/05/01 11:30:52;;;;;;;11.93;7.70;;;;;;;20.82;41.27;101300.03;5326363;28;20035;-65
2023/05/01 11:33:24;;;;;;;10.95;7.30;;;;;;;21.84;41.15;101306.50;5326675;28;20036;-65
2023/05/01 11:35:58;;;;;;;9.98;7.05;;;;;;;22.34;37.94;101297.69;5326331;28;20092;-66
2023/05/01 11:38:30;;;;;;;9.63;6.07;;;;;;;23.96;36.31;101296.47;5325786;28;20039;-66
2023/05/01 11:41:03;;;;;;;9.65;6.43;;;;;;;24.31;35.33;101297.88;5325009;28;20042;-65
2023/05/01 11:43:48;;;;;;;11.02;6.60;;;;;;;24.52;34.02;101293.88;5326120;28;20084;-65
2023/05/01 11:46:27;;;;;;;9.52;6.38;;;;;;;22.88;35.37;101305.34;5326148;28;20032;-65
2023/05/01 11:49:00;;;;;;;8.82;6.30;;;;;;;22.79;35.17;101295.25;5324986;28;20036;-65
2023/05/01 11:51:32;;;;;;;9.45;6.00;;;;;;;23.11;34.24;101292.59;5326265;28;20031;-66